sensor_id;sensor_type;location;lat;lon;timestamp;temperature;humidity
25438;DHT22;13364;49.084;9.978;2023-11-18T06:31:47;5.80;100.00
25438;DHT22;13364;49.084;9.978;2023-11-18T06:34:15;5.80;100.00
25438;DHT22;13364;49.084;9.978;2023-11-18T06:36:41;5.70;100.00
25438;DHT22;13364;49.084;9.978;2023-11-18T06:39:08;5.70;100.00
25438;DHT22;13364;49.084;9.978;2023-11-18T06:41:35;5.70;100.00
25438;DHT22;13364;49.084;9.978;2023-11-18T06:44:04;5.70;100.00
25438;DHT22;13364;49.084;9.978;2023-11-18T06:46:39;5.70;100.00
25438;DHT22;13364;49.084;9.978;2023-11-18T06:49:07;5.70;100.00
25438;DHT22;13364;49.084;9.978;2023-11-18T06:51:37;5.80;100.00
25438;DHT22;13364;49.084;9.978;2023-11-18T06:54:05;5.70;100.00
25438;DHT22;13364;49.084;9.978;2023-11-18T06:56:37;5.80;100.00
25438;DHT22;13364;49.084;9.978;2023-11-18T06:59:05;5.80;100.00
25438;DHT22;13364;49.084;9.978;2023-11-18T07:01:36;5.70;100.00
25438;DHT22;13364;49.084;9.978;2023-11-18T07:04:04;5.70;100.00
25438;DHT22;13364;49.084;9.978;2023-11-18T07:06:35;5.70;100.00
25438;DHT22;13364;49.084;9.978;2023-11-18T07:09:06;5.80;100.00
25438;DHT22;13364;49.084;9.978;2023-11-18T07:11:43;5.80;100.00
25438;DHT22;13364;49.084;9.978;2023-11-18T07:14:10;5.80;100.00
25438;DHT22;13364;49.084;9.978;2023-11-18T07:16:41;5.80;100.00
25438;DHT22;13364;49.084;9.978;2023-11-18T07:19:08;5.80;100.00
25438;DHT22;13364;49.084;9.978;2023-11-18T07:21:37;5.90;100.00
25438;DHT22;13364;49.084;9.978;2023-11-18T07:24:04;5.80;100.00
25438;DHT22;13364;49.084;9.978;2023-11-18T07:26:30;5.80;100.00
25438;DHT22;13364;49.084;9.978;2023-11-18T07:28:57;5.80;100.00
25438;DHT22;13364;49.084;9.978;2023-11-18T07:31:24;5.80;100.00
25438;DHT22;13364;49.084;9.978;2023-11-18T07:33:51;5.80;100.00
25438;DHT22;13364;49.084;9.978;2023-11-18T07:36:19;5.80;100.00
25438;DHT22;13364;49.084;9.978;2023-11-18T07:38:48;5.80;100.00
25438;DHT22;13364;49.084;9.978;2023-11-18T07:41:17;5.80;100.00
25438;DHT22;13364;49.084;9.978;2023-11-18T07:43:58;5.80;100.00
25438;DHT22;13364;49.084;9.978;2023-11-18T07:46:25;5.80;100.00
25438;DHT22;13364;49.084;9.978;2023-11-18T07:48:52;5.80;100.00
25438;DHT22;13364;49.084;9.978;2023-11-18T07:51:20;5.80;100.00
25438;DHT22;13364;49.084;9.978;2023-11-18T07:53:50;5.80;100.00
25438;DHT22;13364;49.084;9.978;2023-11-18T07:56:17;5.90;100.00
25438;DHT22;13364;49.084;9.978;2023-11-18T07:58:44;5.90;100.00
25438;DHT22;13364;49.084;9.978;2023-11-18T08:01:15;6.00;100.00
25438;DHT22;13364;49.084;9.978;2023-11-18T08:03:44;6.00;100.00
25438;DHT22;13364;49.084;9.978;2023-11-18T08:06:12;6.00;100.00
25438;DHT22;13364;49.084;9.978;2023-11-18T08:08:39;6.00;100.00
25438;DHT22;13364;49.084;9.978;2023-11-18T08:11:10;6.00;100.00
25438;DHT22;13364;49.084;9.978;2023-11-18T08:13:37;6.10;100.00
25438;DHT22;13364;49.084;9.978;2023-11-18T08:16:04;6.10;100.00
25438;DHT22;13364;49.084;9.978;2023-11-18T08:18:31;6.10;100.00
25438;DHT22;13364;49.084;9.978;2023-11-18T08:20:58;6.20;100.00
25438;DHT22;13364;49.084;9.978;2023-11-18T08:23:26;6.30;100.00
25438;DHT22;13364;49.084;9.978;2023-11-18T08:25:55;6.30;100.00
25438;DHT22;13364;49.084;9.978;2023-11-18T08:28:22;6.30;100.00
25438;DHT22;13364;49.084;9.978;2023-11-18T08:30:49;6.40;100.00
25438;DHT22;13364;49.084;9.978;2023-11-18T08:33:19;6.40;100.00
25438;DHT22;13364;49.084;9.978;2023-11-18T08:35:45;6.50;100.00
25438;DHT22;13364;49.084;9.978;2023-11-18T08:38:13;6.50;100.00
25438;DHT22;13364;49.084;9.978;2023-11-18T08:40:40;6.50;100.00
25438;DHT22;13364;49.084;9.978;2023-11-18T08:43:07;6.70;100.00
25438;DHT22;13364;49.084;9.978;2023-11-18T08:45:34;6.80;100.00
25438;DHT22;13364;49.084;9.978;2023-11-18T08:48:04;6.80;100.00
25438;DHT22;13364;49.084;9.978;2023-11-18T08:50:36;6.90;100.00
25438;DHT22;13364;49.084;9.978;2023-11-18T08:53:03;7.00;100.00
25438;DHT22;13364;49.084;9.978;2023-11-18T08:55:37;7.10;100.00
25438;DHT22;13364;49.084;9.978;2023-11-18T08:58:11;7.20;100.00
25438;DHT22;13364;49.084;9.978;2023-11-18T09:00:56;7.20;100.00
25438;DHT22;13364;49.084;9.978;2023-11-18T09:03:32;7.30;100.00
25438;DHT22;13364;49.084;9.978;2023-11-18T09:06:04;7.30;100.00
25438;DHT22;13364;49.084;9.978;2023-11-18T09:08:36;7.40;99.60
25438;DHT22;13364;49.084;9.978;2023-11-18T09:11:07;7.40;98.90
25438;DHT22;13364;49.084;9.978;2023-11-18T09:13:34;7.40;98.50
25438;DHT22;13364;49.084;9.978;2023-11-18T09:16:03;7.40;98.80
25438;DHT22;13364;49.084;9.978;2023-11-18T09:18:31;7.50;98.60
25438;DHT22;13364;49.084;9.978;2023-11-18T09:21:03;7.50;98.20
25438;DHT22;13364;49.084;9.978;2023-11-18T09:23:33;7.50;98.10
25438;DHT22;13364;49.084;9.978;2023-11-18T09:26:01;7.50;98.30
25438;DHT22;13364;49.084;9.978;2023-11-18T09:28:29;7.60;97.70
25438;DHT22;13364;49.084;9.978;2023-11-18T09:30:59;7.50;97.40
25438;DHT22;13364;49.084;9.978;2023-11-18T09:33:30;7.60;97.60
25438;DHT22;13364;49.084;9.978;2023-11-18T09:36:05;7.50;97.30
25438;DHT22;13364;49.084;9.978;2023-11-18T09:38:36;7.50;97.20
25438;DHT22;13364;49.084;9.978;2023-11-18T09:41:04;7.60;97.50
25438;DHT22;13364;49.084;9.978;2023-11-18T09:43:34;7.70;98.10
25438;DHT22;13364;49.084;9.978;2023-11-18T09:46:14;7.80;97.90
25438;DHT22;13364;49.084;9.978;2023-11-18T09:48:42;7.90;98.00
25438;DHT22;13364;49.084;9.978;2023-11-18T09:51:09;7.90;97.40
25438;DHT22;13364;49.084;9.978;2023-11-18T09:53:38;7.90;96.20
25438;DHT22;13364;49.084;9.978;2023-11-18T09:56:19;8.00;96.60
25438;DHT22;13364;49.084;9.978;2023-11-18T09:59:01;8.10;96.60
25438;DHT22;13364;49.084;9.978;2023-11-18T10:01:37;8.10;96.20
25438;DHT22;13364;49.084;9.978;2023-11-18T10:04:05;8.20;95.80
25438;DHT22;13364;49.084;9.978;2023-11-18T10:06:35;8.20;95.20
25438;DHT22;13364;49.084;9.978;2023-11-18T10:09:03;8.30;95.00
25438;DHT22;13364;49.084;9.978;2023-11-18T10:11:51;8.30;95.50
25438;DHT22;13364;49.084;9.978;2023-11-18T10:14:21;8.30;95.30
25438;DHT22;13364;49.084;9.978;2023-11-18T10:16:50;8.40;94.50
25438;DHT22;13364;49.084;9.978;2023-11-18T10:19:20;8.30;94.90
25438;DHT22;13364;49.084;9.978;2023-11-18T10:21:47;8.30;94.90
25438;DHT22;13364;49.084;9.978;2023-11-18T10:24:17;8.30;94.50
25438;DHT22;13364;49.084;9.978;2023-11-18T10:26:56;8.30;93.90
25438;DHT22;13364;49.084;9.978;2023-11-18T10:29:24;8.30;93.40
25438;DHT22;13364;49.084;9.978;2023-11-18T10:32:07;8.30;92.90
25438;DHT22;13364;49.084;9.978;2023-11-18T10:34:43;8.30;93.50
25438;DHT22;13364;49.084;9.978;2023-11-18T10:37:11;8.30;93.40
25438;DHT22;13364;49.084;9.978;2023-11-18T10:39:38;8.30;93.20
25438;DHT22;13364;49.084;9.978;2023-11-18T10:42:05;8.30;93.10
25438;DHT22;13364;49.084;9.978;2023-11-18T10:44:32;8.20;93.80
25438;DHT22;13364;49.084;9.978;2023-11-18T10:46:59;8.20;93.70
25438;DHT22;13364;49.084;9.978;2023-11-18T10:49:30;8.20;93.90
25438;DHT22;13364;49.084;9.978;2023-11-18T10:52:04;8.30;93.60
25438;DHT22;13364;49.084;9.978;2023-11-18T10:54:34;8.30;93.10
25438;DHT22;13364;49.084;9.978;2023-11-18T10:57:01;8.30;93.50
25438;DHT22;13364;49.084;9.978;2023-11-18T10:59:34;8.40;93.00
25438;DHT22;13364;49.084;9.978;2023-11-18T11:02:01;8.40;93.10
25438;DHT22;13364;49.084;9.978;2023-11-18T11:04:44;8.40;92.80
25438;DHT22;13364;49.084;9.978;2023-11-18T11:07:12;8.40;93.10
25438;DHT22;13364;49.084;9.978;2023-11-18T11:09:39;8.40;92.80
25438;DHT22;13364;49.084;9.978;2023-11-18T11:12:12;8.50;92.70
25438;DHT22;13364;49.084;9.978;2023-11-18T11:14:55;8.50;92.40
25438;DHT22;13364;49.084;9.978;2023-11-18T11:17:27;8.50;92.60
25438;DHT22;13364;49.084;9.978;2023-11-18T11:20:07;8.60;92.70
25438;DHT22;13364;49.084;9.978;2023-11-18T11:25:28;8.70;91.40
25438;DHT22;13364;49.084;9.978;2023-11-18T11:28:08;8.70;90.60
25438;DHT22;13364;49.084;9.978;2023-11-18T11:30:45;8.60;90.60
25438;DHT22;13364;49.084;9.978;2023-11-18T11:35:49;8.60;90.60
25438;DHT22;13364;49.084;9.978;2023-11-18T11:38:19;8.60;90.20
25438;DHT22;13364;49.084;9.978;2023-11-18T11:40:47;8.60;90.60
25438;DHT22;13364;49.084;9.978;2023-11-18T11:43:16;8.70;90.70
25438;DHT22;13364;49.084;9.978;2023-11-18T11:45:50;8.70;90.20
25438;DHT22;13364;49.084;9.978;2023-11-18T11:48:18;8.70;89.40
25438;DHT22;13364;49.084;9.978;2023-11-18T11:53:27;8.70;89.20
25438;DHT22;13364;49.084;9.978;2023-11-18T11:55:56;8.60;89.30
25438;DHT22;13364;49.084;9.978;2023-11-18T11:58:36;8.60;89.70
25438;DHT22;13364;49.084;9.978;2023-11-18T12:01:26;8.60;89.60
25438;DHT22;13364;49.084;9.978;2023-11-18T12:03:59;8.70;89.90
25438;DHT22;13364;49.084;9.978;2023-11-18T12:06:35;8.70;89.40
25438;DHT22;13364;49.084;9.978;2023-11-18T12:09:09;8.60;89.60
25438;DHT22;13364;49.084;9.978;2023-11-18T12:11:36;8.60;89.60
25438;DHT22;13364;49.084;9.978;2023-11-18T12:14:08;8.60;89.20
25438;DHT22;13364;49.084;9.978;2023-11-18T12:17:01;8.60;88.80
25438;DHT22;13364;49.084;9.978;2023-11-18T12:19:41;8.50;88.50
25438;DHT22;13364;49.084;9.978;2023-11-18T12:33:01;8.60;89.30
25438;DHT22;13364;49.084;9.978;2023-11-18T12:41:36;8.50;90.30
25438;DHT22;13364;49.084;9.978;2023-11-18T12:46:53;8.60;90.20
25438;DHT22;13364;49.084;9.978;2023-11-18T12:49:23;8.60;89.90
25438;DHT22;13364;49.084;9.978;2023-11-18T12:51:54;8.60;89.30
25438;DHT22;13364;49.084;9.978;2023-11-18T12:54:28;8.70;89.60
25438;DHT22;13364;49.084;9.978;2023-11-18T12:56:56;8.70;89.70
25438;DHT22;13364;49.084;9.978;2023-11-18T12:59:23;8.60;89.20
25438;DHT22;13364;49.084;9.978;2023-11-18T13:01:50;8.60;89.60
25438;DHT22;13364;49.084;9.978;2023-11-18T13:04:25;8.50;89.20
25438;DHT22;13364;49.084;9.978;2023-11-18T13:06:53;8.50;89.80
25438;DHT22;13364;49.084;9.978;2023-11-18T13:09:22;8.50;90.00
25438;DHT22;13364;49.084;9.978;2023-11-18T13:11:57;8.50;90.20
25438;DHT22;13364;49.084;9.978;2023-11-18T13:14:31;8.60;90.10
25438;DHT22;13364;49.084;9.978;2023-11-18T13:17:04;8.60;90.10
25438;DHT22;13364;49.084;9.978;2023-11-18T13:19:35;8.60;89.70
25438;DHT22;13364;49.084;9.978;2023-11-18T13:22:03;8.60;89.70
25438;DHT22;13364;49.084;9.978;2023-11-18T13:24:31;8.60;89.70
25438;DHT22;13364;49.084;9.978;2023-11-18T13:26:58;8.50;89.60
25438;DHT22;13364;49.084;9.978;2023-11-18T13:29:30;8.50;89.50
25438;DHT22;13364;49.084;9.978;2023-11-18T13:32:01;8.50;89.50
25438;DHT22;13364;49.084;9.978;2023-11-18T13:34:31;8.50;89.80
25438;DHT22;13364;49.084;9.978;2023-11-18T13:37:00;8.50;89.40
25438;DHT22;13364;49.084;9.978;2023-11-18T13:39:27;8.50;89.60
25438;DHT22;13364;49.084;9.978;2023-11-18T13:41:54;8.40;89.40
25438;DHT22;13364;49.084;9.978;2023-11-18T13:44:37;8.50;89.70
25438;DHT22;13364;49.084;9.978;2023-11-18T13:47:10;8.50;89.30
25438;DHT22;13364;49.084;9.978;2023-11-18T13:49:40;8.40;89.50
25438;DHT22;13364;49.084;9.978;2023-11-18T13:52:07;8.40;89.50
25438;DHT22;13364;49.084;9.978;2023-11-18T13:54:38;8.40;89.40
25438;DHT22;13364;49.084;9.978;2023-11-18T13:57:05;8.40;89.00
25438;DHT22;13364;49.084;9.978;2023-11-18T13:59:32;8.30;89.20
25438;DHT22;13364;49.084;9.978;2023-11-18T14:02:00;8.30;89.50
25438;DHT22;13364;49.084;9.978;2023-11-18T14:04:32;8.30;89.60
25438;DHT22;13364;49.084;9.978;2023-11-18T14:07:01;8.30;89.60
25438;DHT22;13364;49.084;9.978;2023-11-18T14:09:32;8.30;89.60
25438;DHT22;13364;49.084;9.978;2023-11-18T14:12:03;8.30;89.50
25438;DHT22;13364;49.084;9.978;2023-11-18T14:14:33;8.30;88.80
25438;DHT22;13364;49.084;9.978;2023-11-18T14:17:00;8.30;89.20
25438;DHT22;13364;49.084;9.978;2023-11-18T14:19:28;8.30;89.10
25438;DHT22;13364;49.084;9.978;2023-11-18T14:21:55;8.20;88.70
25438;DHT22;13364;49.084;9.978;2023-11-18T14:24:22;8.20;88.60
25438;DHT22;13364;49.084;9.978;2023-11-18T14:26:49;8.20;88.20
25438;DHT22;13364;49.084;9.978;2023-11-18T14:29:20;8.10;88.50
25438;DHT22;13364;49.084;9.978;2023-11-18T14:31:47;8.10;88.60
25438;DHT22;13364;49.084;9.978;2023-11-18T14:34:13;8.10;88.30
25438;DHT22;13364;49.084;9.978;2023-11-18T14:36:41;8.10;88.40
25438;DHT22;13364;49.084;9.978;2023-11-18T14:39:11;8.00;88.40
25438;DHT22;13364;49.084;9.978;2023-11-18T14:41:45;8.00;88.50
25438;DHT22;13364;49.084;9.978;2023-11-18T14:44:12;8.00;88.20
25438;DHT22;13364;49.084;9.978;2023-11-18T14:46:39;8.00;88.30
25438;DHT22;13364;49.084;9.978;2023-11-18T14:49:07;7.90;88.70
25438;DHT22;13364;49.084;9.978;2023-11-18T14:51:36;7.90;89.10
25438;DHT22;13364;49.084;9.978;2023-11-18T14:54:03;7.90;89.40
25438;DHT22;13364;49.084;9.978;2023-11-18T14:56:32;7.90;89.40
25438;DHT22;13364;49.084;9.978;2023-11-18T14:58:59;7.80;89.80
25438;DHT22;13364;49.084;9.978;2023-11-18T15:01:26;7.80;90.10
25438;DHT22;13364;49.084;9.978;2023-11-18T15:03:53;7.70;89.60
25438;DHT22;13364;49.084;9.978;2023-11-18T15:06:27;7.70;89.90
25438;DHT22;13364;49.084;9.978;2023-11-18T15:08:54;7.70;89.80
25438;DHT22;13364;49.084;9.978;2023-11-18T15:11:23;7.70;90.10
25438;DHT22;13364;49.084;9.978;2023-11-18T15:13:51;7.60;90.40
25438;DHT22;13364;49.084;9.978;2023-11-18T15:16:20;7.50;91.00
25438;DHT22;13364;49.084;9.978;2023-11-18T15:18:47;7.40;91.70
25438;DHT22;13364;49.084;9.978;2023-11-18T15:21:14;7.30;92.20
25438;DHT22;13364;49.084;9.978;2023-11-18T15:23:45;7.30;92.80
25438;DHT22;13364;49.084;9.978;2023-11-18T15:26:12;7.20;93.20
25438;DHT22;13364;49.084;9.978;2023-11-18T15:28:39;7.20;93.80
25438;DHT22;13364;49.084;9.978;2023-11-18T15:31:05;7.10;94.10
25438;DHT22;13364;49.084;9.978;2023-11-18T15:33:32;7.10;94.70
25438;DHT22;13364;49.084;9.978;2023-11-18T15:36:00;7.00;95.20
25438;DHT22;13364;49.084;9.978;2023-11-18T15:38:27;7.00;95.30
25438;DHT22;13364;49.084;9.978;2023-11-18T15:40:54;7.00;95.50
25438;DHT22;13364;49.084;9.978;2023-11-18T15:43:21;6.90;95.80
25438;DHT22;13364;49.084;9.978;2023-11-18T15:45:48;6.90;96.00
25438;DHT22;13364;49.084;9.978;2023-11-18T15:48:15;6.90;96.10
25438;DHT22;13364;49.084;9.978;2023-11-18T15:50:43;7.00;96.20
25438;DHT22;13364;49.084;9.978;2023-11-18T15:53:10;6.90;96.10
25438;DHT22;13364;49.084;9.978;2023-11-18T15:55:41;7.00;96.00
25438;DHT22;13364;49.084;9.978;2023-11-18T15:58:10;7.00;95.90
25438;DHT22;13364;49.084;9.978;2023-11-18T16:00:37;7.00;96.00
25438;DHT22;13364;49.084;9.978;2023-11-18T16:03:05;7.00;95.90
25438;DHT22;13364;49.084;9.978;2023-11-18T16:05:36;7.00;95.90
25438;DHT22;13364;49.084;9.978;2023-11-18T16:08:03;7.00;95.70
25438;DHT22;13364;49.084;9.978;2023-11-18T16:10:34;7.00;95.60
25438;DHT22;13364;49.084;9.978;2023-11-18T16:13:01;7.00;95.60
25438;DHT22;13364;49.084;9.978;2023-11-18T16:15:30;7.00;95.90
25438;DHT22;13364;49.084;9.978;2023-11-18T16:17:58;7.00;95.50
25438;DHT22;13364;49.084;9.978;2023-11-18T16:20:27;6.90;95.50
25438;DHT22;13364;49.084;9.978;2023-11-18T16:22:55;6.90;95.60
25438;DHT22;13364;49.084;9.978;2023-11-18T16:25:25;6.80;95.70
25438;DHT22;13364;49.084;9.978;2023-11-18T16:27:56;6.80;95.70
25438;DHT22;13364;49.084;9.978;2023-11-18T16:30:26;6.90;95.70
25438;DHT22;13364;49.084;9.978;2023-11-18T16:32:57;6.90;95.60
25438;DHT22;13364;49.084;9.978;2023-11-18T16:35:24;6.90;95.50
25438;DHT22;13364;49.084;9.978;2023-11-18T16:37:53;6.90;95.70
25438;DHT22;13364;49.084;9.978;2023-11-18T16:40:20;6.90;95.40
25438;DHT22;13364;49.084;9.978;2023-11-18T16:42:52;7.00;95.40
25438;DHT22;13364;49.084;9.978;2023-11-18T16:45:22;7.00;95.20
25438;DHT22;13364;49.084;9.978;2023-11-18T16:47:51;7.00;95.20
25438;DHT22;13364;49.084;9.978;2023-11-18T16:50:20;6.90;95.30
25438;DHT22;13364;49.084;9.978;2023-11-18T16:52:47;6.90;95.70
25438;DHT22;13364;49.084;9.978;2023-11-18T16:55:14;6.80;96.10
25438;DHT22;13364;49.084;9.978;2023-11-18T16:57:41;6.80;96.40
25438;DHT22;13364;49.084;9.978;2023-11-18T17:00:10;6.70;96.80
25438;DHT22;13364;49.084;9.978;2023-11-18T17:02:48;6.70;96.80
25438;DHT22;13364;49.084;9.978;2023-11-18T17:05:17;6.70;96.70
25438;DHT22;13364;49.084;9.978;2023-11-18T17:07:44;6.70;96.90
25438;DHT22;13364;49.084;9.978;2023-11-18T17:10:12;6.60;97.40
25438;DHT22;13364;49.084;9.978;2023-11-18T17:12:40;6.50;97.60
25438;DHT22;13364;49.084;9.978;2023-11-18T17:15:08;6.50;97.80
25438;DHT22;13364;49.084;9.978;2023-11-18T17:17:44;6.50;98.10
25438;DHT22;13364;49.084;9.978;2023-11-18T17:20:14;6.50;98.30
25438;DHT22;13364;49.084;9.978;2023-11-18T17:22:41;6.50;98.30
25438;DHT22;13364;49.084;9.978;2023-11-18T17:25:19;6.50;98.40
25438;DHT22;13364;49.084;9.978;2023-11-18T17:27:46;6.40;98.50
25438;DHT22;13364;49.084;9.978;2023-11-18T17:30:14;6.40;98.80
25438;DHT22;13364;49.084;9.978;2023-11-18T17:32:45;6.40;99.00
25438;DHT22;13364;49.084;9.978;2023-11-18T17:35:14;6.30;99.10
25438;DHT22;13364;49.084;9.978;2023-11-18T17:37:42;6.30;99.20
25438;DHT22;13364;49.084;9.978;2023-11-18T17:40:13;6.30;99.40
25438;DHT22;13364;49.084;9.978;2023-11-18T17:42:42;6.30;99.50
25438;DHT22;13364;49.084;9.978;2023-11-18T17:45:10;6.30;99.40
25438;DHT22;13364;49.084;9.978;2023-11-18T17:47:38;6.30;99.40
25438;DHT22;13364;49.084;9.978;2023-11-18T17:50:08;6.30;99.50
25438;DHT22;13364;49.084;9.978;2023-11-18T17:52:38;6.30;99.60
25438;DHT22;13364;49.084;9.978;2023-11-18T17:55:08;6.30;99.90
25438;DHT22;13364;49.084;9.978;2023-11-18T17:57:36;6.30;100.00
25438;DHT22;13364;49.084;9.978;2023-11-18T18:00:03;6.30;100.00
25438;DHT22;13364;49.084;9.978;2023-11-18T18:02:39;6.30;100.00
25438;DHT22;13364;49.084;9.978;2023-11-18T18:05:09;6.30;100.00
25438;DHT22;13364;49.084;9.978;2023-11-18T18:07:39;6.30;100.00
25438;DHT22;13364;49.084;9.978;2023-11-18T18:10:07;6.40;100.00
25438;DHT22;13364;49.084;9.978;2023-11-18T18:12:39;6.40;100.00
25438;DHT22;13364;49.084;9.978;2023-11-18T18:15:09;6.30;100.00
25438;DHT22;13364;49.084;9.978;2023-11-18T18:17:39;6.30;100.00
25438;DHT22;13364;49.084;9.978;2023-11-18T18:20:06;6.20;100.00
25438;DHT22;13364;49.084;9.978;2023-11-18T18:22:37;6.20;100.00
25438;DHT22;13364;49.084;9.978;2023-11-18T18:25:05;6.20;100.00
25438;DHT22;13364;49.084;9.978;2023-11-18T18:27:32;6.20;100.00
25438;DHT22;13364;49.084;9.978;2023-11-18T18:30:01;6.20;100.00
25438;DHT22;13364;49.084;9.978;2023-11-18T18:32:27;6.30;100.00
25438;DHT22;13364;49.084;9.978;2023-11-18T18:34:54;6.30;100.00
25438;DHT22;13364;49.084;9.978;2023-11-18T18:37:21;6.30;100.00
25438;DHT22;13364;49.084;9.978;2023-11-18T18:39:52;6.30;100.00
25438;DHT22;13364;49.084;9.978;2023-11-18T18:42:20;6.30;100.00
25438;DHT22;13364;49.084;9.978;2023-11-18T18:44:47;6.30;100.00
25438;DHT22;13364;49.084;9.978;2023-11-18T18:47:13;6.20;100.00
25438;DHT22;13364;49.084;9.978;2023-11-18T18:49:42;6.10;100.00
25438;DHT22;13364;49.084;9.978;2023-11-18T18:52:09;6.00;100.00
25438;DHT22;13364;49.084;9.978;2023-11-18T18:54:36;6.00;100.00
25438;DHT22;13364;49.084;9.978;2023-11-18T18:57:03;6.00;100.00
25438;DHT22;13364;49.084;9.978;2023-11-18T18:59:32;5.90;100.00
25438;DHT22;13364;49.084;9.978;2023-11-18T19:01:59;5.90;100.00
25438;DHT22;13364;49.084;9.978;2023-11-18T19:04:26;5.80;100.00
25438;DHT22;13364;49.084;9.978;2023-11-18T19:06:53;5.70;100.00
25438;DHT22;13364;49.084;9.978;2023-11-18T19:09:22;5.70;100.00
25438;DHT22;13364;49.084;9.978;2023-11-18T19:11:49;5.60;100.00
25438;DHT22;13364;49.084;9.978;2023-11-18T19:14:16;5.60;100.00
25438;DHT22;13364;49.084;9.978;2023-11-18T19:16:44;5.60;100.00
25438;DHT22;13364;49.084;9.978;2023-11-18T19:19:11;5.50;100.00
25438;DHT22;13364;49.084;9.978;2023-11-18T19:21:38;5.50;100.00
25438;DHT22;13364;49.084;9.978;2023-11-18T19:24:05;5.50;100.00
25438;DHT22;13364;49.084;9.978;2023-11-18T19:26:32;5.60;100.00
25438;DHT22;13364;49.084;9.978;2023-11-18T19:29:02;5.60;100.00
25438;DHT22;13364;49.084;9.978;2023-11-18T19:31:30;5.60;100.00
25438;DHT22;13364;49.084;9.978;2023-11-18T19:33:57;5.50;100.00
25438;DHT22;13364;49.084;9.978;2023-11-18T19:36:25;5.50;100.00
25438;DHT22;13364;49.084;9.978;2023-11-18T19:38:52;5.50;100.00
25438;DHT22;13364;49.084;9.978;2023-11-18T19:41:18;5.40;100.00
25438;DHT22;13364;49.084;9.978;2023-11-18T19:43:46;5.40;100.00
25438;DHT22;13364;49.084;9.978;2023-11-18T19:46:12;5.40;100.00
25438;DHT22;13364;49.084;9.978;2023-11-18T19:48:39;5.30;100.00
25438;DHT22;13364;49.084;9.978;2023-11-18T19:51:07;5.40;100.00
25438;DHT22;13364;49.084;9.978;2023-11-18T19:53:34;5.40;100.00
25438;DHT22;13364;49.084;9.978;2023-11-18T19:56:01;5.30;100.00
25438;DHT22;13364;49.084;9.978;2023-11-18T19:58:28;5.30;100.00
25438;DHT22;13364;49.084;9.978;2023-11-18T20:00:55;5.30;100.00
25438;DHT22;13364;49.084;9.978;2023-11-18T20:03:22;5.30;100.00
25438;DHT22;13364;49.084;9.978;2023-11-18T20:05:49;5.40;100.00
25438;DHT22;13364;49.084;9.978;2023-11-18T20:08:16;5.40;100.00
25438;DHT22;13364;49.084;9.978;2023-11-18T20:10:44;5.30;100.00
25438;DHT22;13364;49.084;9.978;2023-11-18T20:13:11;5.30;100.00
25438;DHT22;13364;49.084;9.978;2023-11-18T20:15:38;5.30;100.00
25438;DHT22;13364;49.084;9.978;2023-11-18T20:18:05;5.30;100.00
25438;DHT22;13364;49.084;9.978;2023-11-18T20:20:33;5.20;100.00
25438;DHT22;13364;49.084;9.978;2023-11-18T20:22:59;5.20;100.00
25438;DHT22;13364;49.084;9.978;2023-11-18T20:25:26;5.20;100.00
25438;DHT22;13364;49.084;9.978;2023-11-18T20:27:53;5.30;100.00
25438;DHT22;13364;49.084;9.978;2023-11-18T20:30:21;5.30;100.00
25438;DHT22;13364;49.084;9.978;2023-11-18T20:32:48;5.40;100.00
25438;DHT22;13364;49.084;9.978;2023-11-18T20:35:15;5.40;100.00
25438;DHT22;13364;49.084;9.978;2023-11-18T20:37:42;5.40;100.00
25438;DHT22;13364;49.084;9.978;2023-11-18T20:40:14;5.40;100.00
25438;DHT22;13364;49.084;9.978;2023-11-18T20:42:43;5.40;100.00
25438;DHT22;13364;49.084;9.978;2023-11-18T20:45:10;5.40;100.00
25438;DHT22;13364;49.084;9.978;2023-11-18T20:47:40;5.50;100.00
25438;DHT22;13364;49.084;9.978;2023-11-18T20:50:07;5.50;100.00
25438;DHT22;13364;49.084;9.978;2023-11-18T20:52:34;5.60;100.00
25438;DHT22;13364;49.084;9.978;2023-11-18T20:55:01;5.60;100.00
25438;DHT22;13364;49.084;9.978;2023-11-18T20:57:28;5.70;100.00
25438;DHT22;13364;49.084;9.978;2023-11-18T20:59:55;5.70;100.00
25438;DHT22;13364;49.084;9.978;2023-11-18T21:02:23;5.70;100.00
25438;DHT22;13364;49.084;9.978;2023-11-18T21:04:50;5.80;100.00
25438;DHT22;13364;49.084;9.978;2023-11-18T21:07:17;5.80;100.00
25438;DHT22;13364;49.084;9.978;2023-11-18T21:09:44;5.80;100.00
25438;DHT22;13364;49.084;9.978;2023-11-18T21:12:11;5.80;100.00
25438;DHT22;13364;49.084;9.978;2023-11-18T21:14:47;5.80;100.00
25438;DHT22;13364;49.084;9.978;2023-11-18T21:17:15;5.80;100.00
25438;DHT22;13364;49.084;9.978;2023-11-18T21:19:42;5.80;100.00
25438;DHT22;13364;49.084;9.978;2023-11-18T21:22:09;5.90;100.00
25438;DHT22;13364;49.084;9.978;2023-11-18T21:24:35;5.90;100.00
25438;DHT22;13364;49.084;9.978;2023-11-18T21:27:03;5.90;100.00
25438;DHT22;13364;49.084;9.978;2023-11-18T21:29:29;5.90;100.00
25438;DHT22;13364;49.084;9.978;2023-11-18T21:31:56;5.90;100.00
25438;DHT22;13364;49.084;9.978;2023-11-18T21:34:24;6.00;100.00
25438;DHT22;13364;49.084;9.978;2023-11-18T21:36:50;6.00;100.00
25438;DHT22;13364;49.084;9.978;2023-11-18T21:39:17;6.00;100.00
25438;DHT22;13364;49.084;9.978;2023-11-18T21:41:45;6.00;100.00
25438;DHT22;13364;49.084;9.978;2023-11-18T21:44:12;6.10;100.00
25438;DHT22;13364;49.084;9.978;2023-11-18T21:46:39;6.10;100.00
25438;DHT22;13364;49.084;9.978;2023-11-18T21:49:06;6.10;100.00
25438;DHT22;13364;49.084;9.978;2023-11-18T21:51:36;6.10;100.00
25438;DHT22;13364;49.084;9.978;2023-11-18T21:54:03;6.10;100.00
25438;DHT22;13364;49.084;9.978;2023-11-18T21:56:37;6.10;100.00
25438;DHT22;13364;49.084;9.978;2023-11-18T21:59:04;6.10;100.00
25438;DHT22;13364;49.084;9.978;2023-11-18T22:01:31;6.20;100.00
25438;DHT22;13364;49.084;9.978;2023-11-18T22:03:58;6.20;100.00
25438;DHT22;13364;49.084;9.978;2023-11-18T22:06:25;6.20;100.00
25438;DHT22;13364;49.084;9.978;2023-11-18T22:08:52;6.30;100.00
25438;DHT22;13364;49.084;9.978;2023-11-18T22:11:19;6.30;100.00
25438;DHT22;13364;49.084;9.978;2023-11-18T22:13:46;6.40;100.00
25438;DHT22;13364;49.084;9.978;2023-11-18T22:16:16;6.50;100.00
25438;DHT22;13364;49.084;9.978;2023-11-18T22:18:43;6.40;100.00
25438;DHT22;13364;49.084;9.978;2023-11-18T22:21:10;6.50;100.00
25438;DHT22;13364;49.084;9.978;2023-11-18T22:23:37;6.50;100.00
25438;DHT22;13364;49.084;9.978;2023-11-18T22:26:05;6.50;100.00
25438;DHT22;13364;49.084;9.978;2023-11-18T22:28:36;6.60;100.00
25438;DHT22;13364;49.084;9.978;2023-11-18T22:31:05;6.60;100.00
25438;DHT22;13364;49.084;9.978;2023-11-18T22:33:33;6.70;100.00
25438;DHT22;13364;49.084;9.978;2023-11-18T22:36:01;6.70;100.00
25438;DHT22;13364;49.084;9.978;2023-11-18T22:38:28;6.70;100.00
25438;DHT22;13364;49.084;9.978;2023-11-18T22:40:55;6.70;100.00
25438;DHT22;13364;49.084;9.978;2023-11-18T22:43:22;6.70;100.00
25438;DHT22;13364;49.084;9.978;2023-11-18T22:45:49;6.60;100.00
25438;DHT22;13364;49.084;9.978;2023-11-18T22:48:17;6.70;100.00
25438;DHT22;13364;49.084;9.978;2023-11-18T22:50:46;6.70;100.00